Time;durP1;ratioP1;P1;durP2;ratioP2;P2;SDS_P1;SDS_P2;PMS_P1;PMS_P2;Temp;Humidity;BMP_temperature;BMP_pressure;BME280_temperature;BME280_humidity;BME280_pressure;Samples;Min_cycle;Max_cycle;Signal;HPM_P1;HPM_P2
2023/10/01 00:01:45;;;;;;;5.03;3.03;;;;;;;11.65;99.01;102342.84;5033254;28;19924;-81
2023/10/01 00:04:11;;;;;;;4.95;3.05;;;;;;;11.62;99.36;102341.13;5033478;28;20060;-80
2023/10/01 00:06:37;;;;;;;5.97;3.10;;;;;;;11.57;99.51;102335.00;5032640;28;20466;-80
2023/10/01 00:09:05;;;;;;;6.07;3.20;;;;;;;11.53;99.53;102339.34;5033147;28;20287;-80
2023/10/01 00:11:37;;;;;;;3.45;2.75;;;;;;;11.51;99.31;102337.59;5033237;28;20179;-81
2023/10/01 00:14:08;;;;;;;5.05;2.85;;;;;;;11.48;99.74;102343.66;5033272;28;20038;-80
2023/10/01 00:16:37;;;;;;;4.72;2.83;;;;;;;11.47;100.00;102341.03;5033615;28;20029;-81
2023/10/01 00:19:06;;;;;;;5.28;3.03;;;;;;;11.48;99.87;102337.56;5032653;28;20037;-80
2023/10/01 00:21:31;;;;;;;4.22;2.92;;;;;;;11.47;99.94;102333.25;5033459;28;20051;-81
2023/10/01 00:23:57;;;;;;;4.17;2.80;;;;;;;11.47;100.00;102341.91;5033411;28;20026;-80
2023/10/01 00:26:23;;;;;;;3.40;2.57;;;;;;;11.47;100.00;102344.53;5032729;28;20037;-80
2023/10/01 00:28:51;;;;;;;3.27;2.40;;;;;;;11.44;99.83;102345.34;5033410;28;20021;-81
2023/10/01 00:31:17;;;;;;;2.85;2.30;;;;;;;11.45;99.79;102343.63;5033044;28;20342;-80
2023/10/01 00:33:43;;;;;;;4.13;2.43;;;;;;;11.48;99.80;102342.78;5032506;28;20108;-81
2023/10/01 00:36:08;;;;;;;3.00;2.40;;;;;;;11.50;99.95;102336.72;5033394;28;20374;-80
2023/10/01 00:38:33;;;;;;;2.90;2.20;;;;;;;11.52;100.00;102331.53;5032048;28;20036;-81
2023/10/01 00:40:59;;;;;;;3.47;2.50;;;;;;;11.54;100.00;102327.22;5032343;28;20389;-80
2023/10/01 00:43:25;;;;;;;4.67;2.40;;;;;;;11.59;100.00;102333.31;5032784;28;20076;-80
2023/10/01 00:45:51;;;;;;;3.38;2.33;;;;;;;11.61;100.00;102333.28;5032956;28;20517;-80
2023/10/01 00:48:18;;;;;;;3.77;2.47;;;;;;;11.63;99.76;102328.97;5031956;28;20053;-80
2023/10/01 00:50:44;;;;;;;3.38;2.20;;;;;;;11.65;99.76;102325.50;5032721;28;20033;-81
2023/10/01 00:53:10;;;;;;;3.17;2.35;;;;;;;11.64;100.00;102325.50;5032538;28;20097;-80
2023/10/01 00:55:37;;;;;;;4.93;2.90;;;;;;;11.61;100.00;102320.28;5032385;28;20124;-80
2023/10/01 00:58:03;;;;;;;4.50;2.83;;;;;;;11.59;100.00;102310.78;5032886;28;20025;-81
2023/10/01 01:00:28;;;;;;;5.40;2.85;;;;;;;11.57;100.00;102315.09;5032719;28;20017;-80
2023/10/01 01:02:57;;;;;;;4.60;2.77;;;;;;;11.57;100.00;102309.91;5032039;28;20102;-80
2023/10/01 01:05:34;;;;;;;2.75;2.20;;;;;;;11.52;100.00;102297.75;5032484;28;20049;-80
2023/10/01 01:08:02;;;;;;;4.25;2.60;;;;;;;11.51;100.00;102296.84;5031946;28;20026;-80
2023/10/01 01:10:31;;;;;;;3.75;2.40;;;;;;;11.48;100.00;102295.97;5032430;28;20041;-80
2023/10/01 01:12:58;;;;;;;3.15;2.40;;;;;;;11.49;100.00;102303.78;5032625;28;20076;-80
2023/10/01 01:15:23;;;;;;;2.83;2.20;;;;;;;11.50;100.00;102294.25;5031820;28;20029;-80
2023/10/01 01:17:50;;;;;;;2.63;2.03;;;;;;;11.49;100.00;102290.78;5032423;28;20045;-81
2023/10/01 01:20:16;;;;;;;2.55;2.00;;;;;;;11.48;100.00;102289.06;5032384;28;20025;-81
2023/10/01 01:22:49;;;;;;;2.37;2.00;;;;;;;11.47;100.00;102289.94;5031831;28;20121;-81
2023/10/01 01:25:20;;;;;;;2.50;2.10;;;;;;;11.46;100.00;102295.09;5032277;28;20276;-80
2023/10/01 01:27:46;;;;;;;2.55;2.13;;;;;;;11.47;100.00;102300.31;5032289;28;20036;-80
2023/10/01 01:30:19;;;;;;;2.35;2.05;;;;;;;11.43;100.00;102289.03;5031749;28;20113;-80
2023/10/01 01:32:53;;;;;;;2.45;1.90;;;;;;;11.44;100.00;102295.97;5032356;28;20034;-81
2023/10/01 01:35:27;;;;;;;2.20;2.00;;;;;;;11.44;100.00;102295.09;5032136;28;20483;-82
2023/10/01 01:37:54;;;;;;;3.60;2.30;;;;;;;11.44;100.00;102288.16;5031763;28;20022;-81
2023/10/01 01:40:31;;;;;;;2.40;2.20;;;;;;;11.46;100.00;102285.59;5032394;28;20474;-81
2023/10/01 01:42:57;;;;;;;2.58;2.05;;;;;;;11.44;100.00;102288.16;5032777;28;20116;-81
2023/10/01 01:45:28;;;;;;;3.23;2.30;;;;;;;11.44;100.00;102284.72;5031439;28;20182;-81
2023/10/01 01:47:54;;;;;;;2.03;1.75;;;;;;;11.43;100.00;102282.97;5032400;28;20029;-81
2023/10/01 01:50:27;;;;;;;2.00;1.80;;;;;;;11.43;100.00;102278.63;5031482;28;20038;-81
2023/10/01 01:52:56;;;;;;;2.13;1.88;;;;;;;11.46;100.00;102287.31;5031851;28;20112;-81
2023/10/01 01:55:23;;;;;;;2.30;1.77;;;;;;;11.46;100.00;102277.78;5032064;28;20049;-80
2023/10/01 01:58:08;;;;;;;;;;;;;;;11.47;99.87;102270.84;5032152;28;20026;-80
2023/10/01 02:00:38;;;;;;;2.00;1.70;;;;;;;11.48;100.00;102278.66;5032284;28;19913;-81
2023/10/01 02:03:18;;;;;;;2.03;1.83;;;;;;;11.47;99.94;102284.72;5031669;28;20533;-81
2023/10/01 02:05:47;;;;;;;1.70;1.60;;;;;;;11.46;99.95;102277.78;5031524;28;20099;-81
2023/10/01 02:08:24;;;;;;;2.00;1.73;;;;;;;11.45;99.87;102270.84;5032023;28;20029;-80
2023/10/01 02:10:55;;;;;;;1.95;1.63;;;;;;;11.45;99.80;102270.84;5032069;28;20050;-80
2023/10/01 02:13:24;;;;;;;2.72;1.95;;;;;;;11.43;100.00;102263.03;5030610;28;20533;-81
2023/10/01 02:15:51;;;;;;;3.47;1.90;;;;;;;11.39;100.00;102271.69;5032054;28;20025;-81
2023/10/01 02:18:17;;;;;;;1.92;1.58;;;;;;;11.40;100.00;102262.16;5031348;28;20025;-81
2023/10/01 02:20:51;;;;;;;2.03;1.70;;;;;;;11.39;100.00;102260.41;5031878;28;20029;-81
2023/10/01 02:23:25;;;;;;;2.08;1.80;;;;;;;11.37;100.00;102257.81;5031794;28;20029;-81
2023/10/01 02:25:51;;;;;;;1.98;1.77;;;;;;;11.36;100.00;102250.03;5031513;28;20373;-80
2023/10/01 02:28:16;;;;;;;2.53;1.80;;;;;;;11.35;100.00;102256.09;5031768;28;20439;-81
2023/10/01 02:30:44;;;;;;;2.47;1.60;;;;;;;11.31;100.00;102257.81;5033104;28;20064;-81
2023/10/01 02:33:16;;;;;;;1.73;1.63;;;;;;;11.28;100.00;102249.97;5034600;28;20021;-80
2023/10/01 02:35:49;;;;;;;2.35;1.70;;;;;;;11.26;100.00;102247.34;5035561;28;20025;-81
2023/10/01 02:41:02;;;;;;;3.00;1.80;;;;;;;11.30;100.00;102261.25;5034761;28;20122;-81
2023/10/01 02:43:36;;;;;;;2.15;1.73;;;;;;;11.30;100.00;102253.47;5035407;28;20117;-81
2023/10/01 02:46:04;;;;;;;2.83;2.05;;;;;;;11.29;100.00;102264.72;5035447;28;20389;-81
2023/10/01 02:48:30;;;;;;;3.17;2.00;;;;;;;11.26;100.00;102262.94;5034446;28;20022;-81
2023/10/01 02:51:14;;;;;;;2.33;1.97;;;;;;;11.30;100.00;102270.78;5035233;28;20075;-81
2023/10/01 02:54:01;;;;;;;3.92;2.20;;;;;;;11.30;100.00;102263.88;5016702;28;20033;-80
2023/10/01 02:56:37;;;;;;;3.03;2.10;;;;;;;11.33;100.00;102271.66;5034578;28;20036;-81
2023/10/01 02:59:15;;;;;;;2.58;2.05;;;;;;;11.33;100.00;102265.59;5034916;28;20043;-81
2023/10/01 03:01:47;;;;;;;2.63;1.90;;;;;;;11.31;100.00;102269.91;5034229;28;20029;-81
2023/10/01 03:04:16;;;;;;;2.55;2.00;;;;;;;11.31;100.00;102267.31;5035034;28;20041;-81
2023/10/01 03:06:47;;;;;;;2.13;1.85;;;;;;;11.31;100.00;102264.72;5034908;28;20429;-81
2023/10/01 03:09:31;;;;;;;2.92;2.03;;;;;;;11.23;100.00;102249.97;5033961;28;20033;-81
2023/10/01 03:14:43;;;;;;;2.67;2.10;;;;;;;11.24;100.00;102249.09;5033812;28;20033;-81
2023/10/01 03:17:09;;;;;;;2.35;1.85;;;;;;;11.24;100.00;102250.81;5033263;28;20124;-81
2023/10/01 03:19:36;;;;;;;2.93;2.10;;;;;;;11.21;100.00;102251.69;5034695;28;20101;-81
2023/10/01 03:24:38;;;;;;;3.88;2.15;;;;;;;11.19;100.00;102248.19;5034417;28;20168;-81
2023/10/01 03:27:27;;;;;;;3.92;2.20;;;;;;;11.21;100.00;102258.59;5034455;28;20084;-80
2023/10/01 03:30:00;;;;;;;3.33;2.13;;;;;;;11.19;100.00;102256.00;5033909;28;20017;-81
2023/10/01 03:32:27;;;;;;;3.00;2.00;;;;;;;11.19;100.00;102256.00;5033671;28;20482;-81
2023/10/01 03:34:56;;;;;;;2.42;1.60;;;;;;;11.18;100.00;102253.41;5034362;28;20108;-81
2023/10/01 03:37:38;;;;;;;2.15;1.70;;;;;;;11.17;100.00;102249.91;5033583;28;20433;-80
2023/10/01 03:40:22;;;;;;;3.08;1.77;;;;;;;11.19;100.00;102252.53;5034377;28;20072;-81
2023/10/01 03:42:51;;;;;;;2.45;1.80;;;;;;;11.18;100.00;102248.22;5032239;28;20098;-80
2023/10/01 03:48:00;;;;;;;2.55;1.80;;;;;;;11.18;100.00;102251.66;5034587;28;20047;-80
2023/10/01 03:50:26;;;;;;;2.63;1.80;;;;;;;11.18;100.00;102248.22;5033087;28;20026;-81
2023/10/01 03:52:54;;;;;;;2.40;1.80;;;;;;;11.18;100.00;102240.41;5034033;28;20032;-81
2023/10/01 03:55:26;;;;;;;2.38;1.90;;;;;;;11.17;100.00;102249.91;5033712;28;20026;-80
2023/10/01 03:58:08;;;;;;;2.20;1.73;;;;;;;11.19;100.00;102248.19;5033523;28;20052;-80
2023/10/01 04:00:53;;;;;;;4.03;2.05;;;;;;;11.19;100.00;102245.59;5033668;28;20026;-80
2023/10/01 04:03:21;;;;;;;2.30;1.73;;;;;;;11.20;100.00;102260.34;5033714;28;20027;-80
2023/10/01 04:05:47;;;;;;;2.80;1.90;;;;;;;11.20;100.00;102252.53;5033257;28;20026;-80
2023/10/01 04:08:16;;;;;;;4.32;2.22;;;;;;;11.19;100.00;102247.34;5033344;28;20029;-80
2023/10/01 04:10:43;;;;;;;4.13;2.30;;;;;;;11.18;100.00;102245.59;5033646;28;20045;-80
2023/10/01 04:13:12;;;;;;;3.80;2.50;;;;;;;11.16;100.00;102242.97;5033162;28;20033;-80
2023/10/01 04:15:41;;;;;;;2.47;1.85;;;;;;;11.18;100.00;102245.59;5033671;28;20021;-80
2023/10/01 04:23:29;;;;;;;4.80;2.60;;;;;;;11.12;100.00;102244.69;5033240;28;20048;-81
2023/10/01 04:26:06;;;;;;;4.25;2.60;;;;;;;11.18;100.00;102248.22;5032588;28;20027;-80
2023/10/01 04:28:35;;;;;;;3.88;2.20;;;;;;;11.19;100.00;102250.81;5033242;28;20049;-80
2023/10/01 04:31:03;;;;;;;3.25;2.10;;;;;;;11.20;100.00;102246.50;5033207;28;20037;-80
2023/10/01 04:33:29;;;;;;;3.45;2.00;;;;;;;11.20;100.00;102249.94;5032473;28;20040;-81
2023/10/01 04:35:55;;;;;;;4.18;2.33;;;;;;;11.20;100.00;102244.75;5033362;28;20104;-80
2023/10/01 04:38:29;;;;;;;3.40;2.17;;;;;;;11.18;100.00;102236.06;5033127;28;20536;-80
2023/10/01 04:40:55;;;;;;;2.95;2.00;;;;;;;11.19;100.00;102243.00;5032390;28;20022;-80
2023/10/01 04:43:20;;;;;;;4.00;2.20;;;;;;;11.20;100.00;102231.75;5033065;28;20065;-80
2023/10/01 04:45:46;;;;;;;4.23;2.47;;;;;;;11.20;100.00;102242.16;5032858;28;20084;-80
2023/10/01 04:48:17;;;;;;;6.40;3.15;;;;;;;11.20;100.00;102241.28;5032447;28;20114;-80
2023/10/01 04:50:46;;;;;;;5.40;2.75;;;;;;;11.20;100.00;102247.34;5033110;28;20026;-80
2023/10/01 04:53:15;;;;;;;4.93;2.55;;;;;;;11.21;100.00;102241.28;5031393;28;20096;-80
2023/10/01 04:55:41;;;;;;;3.72;2.20;;;;;;;11.19;100.00;102242.16;5032750;28;20034;-80
2023/10/01 04:58:12;;;;;;;4.53;2.40;;;;;;;11.18;100.00;102243.88;5032595;28;20386;-80
2023/10/01 05:00:40;;;;;;;3.38;2.15;;;;;;;11.18;100.00;102249.06;5032134;28;20036;-80
2023/10/01 05:03:06;;;;;;;3.10;1.90;;;;;;;11.20;100.00;102252.53;5032593;28;20032;-80
2023/10/01 05:05:33;;;;;;;5.40;2.70;;;;;;;11.21;100.00;102245.59;5032894;28;20025;-81
2023/10/01 05:07:58;;;;;;;5.55;2.65;;;;;;;11.21;100.00;102251.69;5032206;28;20021;-81
2023/10/01 05:10:25;;;;;;;7.13;3.03;;;;;;;11.22;100.00;102244.75;5032342;28;20052;-81
2023/10/01 05:12:55;;;;;;;5.28;2.70;;;;;;;11.20;100.00;102242.16;5032216;28;20690;-81
2023/10/01 05:15:25;;;;;;;6.07;2.85;;;;;;;11.21;100.00;102248.19;5031922;28;20037;-81
2023/10/01 05:17:52;;;;;;;4.25;2.50;;;;;;;11.23;100.00;102243.88;5033062;28;20044;-81
2023/10/01 05:20:19;;;;;;;5.05;2.40;;;;;;;11.21;100.00;102238.69;5032392;28;20052;-81
2023/10/01 05:22:50;;;;;;;5.03;2.60;;;;;;;11.20;100.00;102247.34;5031688;28;20026;-81
2023/10/01 05:25:18;;;;;;;5.97;2.90;;;;;;;11.19;100.00;102256.00;5032685;28;20024;-80
2023/10/01 05:27:44;;;;;;;5.70;2.78;;;;;;;11.20;100.00;102260.34;5032794;28;20025;-81
2023/10/01 05:30:34;;;;;;;4.03;2.37;;;;;;;11.20;100.00;102256.88;5031470;28;20116;-80
2023/10/01 05:32:55;;;;;;;3.83;2.23;;;;;;;11.21;100.00;102264.69;5032277;28;20368;-80
2023/10/01 05:35:22;;;;;;;5.47;2.70;;;;;;;11.22;100.00;102262.94;5031538;28;20283;-80
2023/10/01 05:37:49;;;;;;;3.38;2.20;;;;;;;11.22;100.00;102258.63;5032355;28;20026;-81
2023/10/01 05:40:17;;;;;;;4.13;2.33;;;;;;;11.23;100.00;102265.56;5032173;28;20366;-81
2023/10/01 05:42:47;;;;;;;4.05;2.30;;;;;;;11.23;100.00;102272.47;5031788;28;20029;-80
2023/10/01 05:45:18;;;;;;;3.92;2.22;;;;;;;11.20;100.00;102267.28;5032109;28;20084;-80
2023/10/01 05:47:54;;;;;;;4.20;2.30;;;;;;;11.22;100.00;102276.81;5032254;28;20030;-81
2023/10/01 05:50:22;;;;;;;4.63;2.30;;;;;;;11.21;100.00;102274.19;5031403;28;20088;-80
2023/10/01 05:52:47;;;;;;;4.07;2.42;;;;;;;11.20;100.00;102270.72;5032783;28;20029;-79
2023/10/01 05:55:15;;;;;;;2.87;1.90;;;;;;;11.20;100.00;102264.69;5032072;28;20101;-79
2023/10/01 05:57:43;;;;;;;4.07;2.40;;;;;;;11.21;100.00;102264.69;5031389;28;20029;-80
2023/10/01 06:00:17;;;;;;;3.75;2.20;;;;;;;11.22;100.00;102256.03;5031990;28;20033;-82
2023/10/01 06:03:00;;;;;;;2.72;1.90;;;;;;;11.24;100.00;102261.22;5032359;28;20037;-82
2023/10/01 06:05:33;;;;;;;3.03;1.80;;;;;;;11.26;100.00;102260.34;5031682;28;20490;-80
2023/10/01 06:08:00;;;;;;;3.13;1.90;;;;;;;11.28;100.00;102257.78;5035353;28;20447;-80
2023/10/01 06:10:35;;;;;;;2.60;1.73;;;;;;;11.28;100.00;102265.56;5034967;28;20409;-81
2023/10/01 06:13:01;;;;;;;4.70;2.50;;;;;;;11.31;100.00;102269.91;5035838;28;20032;-81
2023/10/01 06:15:29;;;;;;;4.83;2.47;;;;;;;11.30;100.00;102256.06;5034664;28;20025;-81
2023/10/01 06:17:55;;;;;;;3.90;2.40;;;;;;;11.34;100.00;102269.94;5032704;28;20489;-80
2023/10/01 06:20:26;;;;;;;4.70;2.47;;;;;;;11.35;100.00;102269.06;5034992;28;20033;-81
2023/10/01 06:22:55;;;;;;;4.88;2.47;;;;;;;11.38;100.00;102269.06;5035213;28;20021;-80
2023/10/01 06:25:37;;;;;;;4.25;2.42;;;;;;;11.39;100.00;102273.41;5034013;28;20036;-81
2023/10/01 06:28:10;;;;;;;4.38;2.22;;;;;;;11.45;100.00;102278.66;5035720;28;20092;-81
2023/10/01 06:30:43;;;;;;;4.47;2.50;;;;;;;11.52;100.00;102266.53;5035713;28;20029;-81
2023/10/01 06:33:24;;;;;;;5.63;2.70;;;;;;;11.59;100.00;102265.69;5034741;28;20104;-81
2023/10/01 06:38:38;;;;;;;4.80;2.40;;;;;;;11.79;100.00;102265.75;5034425;28;20506;-81
2023/10/01 06:41:06;;;;;;;6.35;2.70;;;;;;;11.88;100.00;102270.97;5035343;28;20029;-81
2023/10/01 06:43:32;;;;;;;5.95;2.90;;;;;;;11.96;100.00;102262.31;5035523;28;20025;-81
2023/10/01 06:45:59;;;;;;;5.65;2.50;;;;;;;12.05;100.00;102255.44;5034829;28;20084;-81
2023/10/01 06:48:27;;;;;;;7.43;3.10;;;;;;;12.17;100.00;102251.09;5034778;28;20111;-80
2023/10/01 06:50:53;;;;;;;9.90;3.55;;;;;;;12.74;100.00;102248.44;5032254;28;20409;-81
2023/10/01 06:53:19;;;;;;;8.30;3.30;;;;;;;13.56;100.00;102252.56;5033690;28;20091;-81
2023/10/01 06:55:47;;;;;;;8.80;3.65;;;;;;;13.88;100.00;102257.59;5034170;28;20458;-81
2023/10/01 06:58:13;;;;;;;7.57;3.10;;;;;;;13.89;99.33;102264.53;5031868;28;20029;-82
2023/10/01 07:00:41;;;;;;;6.87;3.03;;;;;;;13.80;99.12;102266.34;5033918;28;20079;-82
2023/10/01 07:03:21;;;;;;;6.38;3.10;;;;;;;13.62;98.68;102255.13;5034593;28;20058;-82
2023/10/01 07:05:51;;;;;;;8.15;3.40;;;;;;;13.50;98.38;102253.44;5035201;28;20025;-82
2023/10/01 07:08:18;;;;;;;8.57;3.70;;;;;;;13.46;98.57;102259.53;5033393;28;20029;-82
2023/10/01 07:10:46;;;;;;;8.65;3.42;;;;;;;13.42;99.00;102261.31;5034614;28;20472;-82
2023/10/01 07:13:15;;;;;;;7.97;3.28;;;;;;;13.39;99.29;102248.31;5034899;28;20545;-82
2023/10/01 07:15:43;;;;;;;7.38;3.20;;;;;;;13.42;99.61;102258.69;5034124;28;20029;-80
2023/10/01 07:18:19;;;;;;;7.47;3.03;;;;;;;13.44;99.53;102254.34;5034429;28;20025;-82
2023/10/01 07:20:49;;;;;;;8.48;3.60;;;;;;;13.44;99.66;102251.72;5033664;28;20065;-81
2023/10/01 07:23:15;;;;;;;8.63;3.30;;;;;;;13.48;100.00;102263.00;5034264;28;20025;-81
2023/10/01 07:25:43;;;;;;;10.07;3.87;;;;;;;13.53;99.68;102270.81;5034544;28;20493;-79
2023/10/01 07:28:18;;;;;;;10.93;4.30;;;;;;;13.50;99.93;102256.06;5033433;28;20029;-80
2023/10/01 07:30:51;;;;;;;8.63;3.90;;;;;;;13.63;99.93;102276.88;5034503;28;20033;-80
2023/10/01 07:33:17;;;;;;;8.80;3.50;;;;;;;13.67;100.00;102273.38;5033972;28;20044;-79
2023/10/01 07:35:45;;;;;;;7.57;3.67;;;;;;;13.74;99.47;102281.13;5033649;28;20443;-80
2023/10/01 07:38:17;;;;;;;8.98;3.75;;;;;;;13.80;99.75;102271.56;5033654;28;20031;-79
2023/10/01 07:40:57;;;;;;;9.90;3.80;;;;;;;13.84;99.99;102263.69;5034244;28;20026;-80
2023/10/01 07:43:30;;;;;;;7.93;3.40;;;;;;;13.95;99.70;102275.81;5033131;28;20029;-80
2023/10/01 07:45:58;;;;;;;9.45;3.65;;;;;;;14.01;99.69;102273.16;5033920;28;20104;-81
2023/10/01 07:48:28;;;;;;;10.27;4.22;;;;;;;14.08;99.64;102277.47;5033786;28;20018;-80
2023/10/01 07:50:58;;;;;;;11.88;4.10;;;;;;;14.16;99.26;102286.09;5033184;28;20040;-80
2023/10/01 07:53:32;;;;;;;9.95;3.65;;;;;;;14.26;99.19;102292.13;5033894;28;20098;-80
2023/10/01 07:56:02;;;;;;;8.93;3.75;;;;;;;14.34;99.31;102292.06;5033346;28;20021;-80
2023/10/01 07:58:47;;;;;;;9.05;3.85;;;;;;;14.42;99.36;102285.03;5024508;28;20029;-80
2023/10/01 08:04:05;;;;;;;11.82;4.50;;;;;;;14.58;98.30;102280.53;5033418;28;20071;-80
2023/10/01 08:06:41;;;;;;;11.18;4.30;;;;;;;14.69;98.67;102282.22;5033361;28;20462;-80
2023/10/01 08:09:11;;;;;;;9.18;3.90;;;;;;;14.78;98.40;102282.13;5033250;28;20091;-81
2023/10/01 08:11:58;;;;;;;8.80;3.65;;;;;;;14.85;98.12;102277.69;5032567;28;20041;-80
2023/10/01 08:14:26;;;;;;;11.30;4.05;;;;;;;14.95;98.24;102272.38;5033238;28;20493;-81
2023/10/01 08:16:57;;;;;;;9.07;3.78;;;;;;;15.04;97.30;102284.47;5033364;28;20025;-80
2023/10/01 08:19:23;;;;;;;10.93;4.00;;;;;;;15.13;97.57;102286.13;5033290;28;20536;-80
2023/10/01 08:21:53;;;;;;;8.00;3.40;;;;;;;15.23;97.86;102281.66;5033360;28;20116;-80
2023/10/01 08:24:19;;;;;;;7.45;3.40;;;;;;;15.33;97.47;102288.50;5032088;28;20026;-80
2023/10/01 08:27:12;;;;;;;11.15;4.20;;;;;;;15.44;96.16;102293.59;5033519;28;20433;-80
2023/10/01 08:32:38;;;;;;;11.98;4.53;;;;;;;15.68;94.23;102302.00;4987611;28;20048;-79
2023/10/01 08:35:08;;;;;;;10.43;4.38;;;;;;;15.77;96.14;102296.63;5033385;28;20025;-79
2023/10/01 08:37:37;;;;;;;8.80;3.65;;;;;;;15.88;96.57;102305.25;5032832;28;20029;-79
2023/10/01 08:40:13;;;;;;;9.75;4.40;;;;;;;16.00;94.82;102308.56;5031895;28;20560;-79
2023/10/01 08:42:43;;;;;;;11.45;4.10;;;;;;;16.12;95.41;102307.53;5032989;28;20029;-80
2023/10/01 08:45:11;;;;;;;10.13;3.92;;;;;;;16.23;95.37;102296.88;5030079;28;20029;-78
2023/10/01 08:47:37;;;;;;;9.60;3.67;;;;;;;16.35;95.46;102294.94;5032692;28;20021;-80
2023/10/01 08:50:26;;;;;;;10.25;4.00;;;;;;;16.48;94.93;102303.47;5032448;28;20079;-80
2023/10/01 08:52:57;;;;;;;11.73;4.47;;;;;;;16.64;93.36;102297.97;5030337;28;20028;-80
2023/10/01 08:58:15;;;;;;;9.27;3.80;;;;;;;16.91;94.14;102303.59;5028240;28;20087;-80
2023/10/01 09:01:12;;;;;;;9.52;4.00;;;;;;;16.97;92.59;102293.88;5027390;28;20396;-80
2023/10/01 09:03:38;;;;;;;11.15;4.10;;;;;;;17.09;91.03;102294.53;5021243;28;20466;-80
2023/10/01 09:06:05;;;;;;;11.43;4.47;;;;;;;17.24;91.92;102304.75;5031841;28;20029;-81
2023/10/01 09:08:43;;;;;;;10.73;4.15;;;;;;;17.37;90.97;102302.72;5031763;28;20076;-80
2023/10/01 09:11:13;;;;;;;10.70;4.30;;;;;;;17.50;91.10;102305.09;5026552;28;20038;-80
2023/10/01 09:13:45;;;;;;;12.00;4.40;;;;;;;17.67;90.42;102295.09;5031683;28;20394;-78
2023/10/01 09:16:11;;;;;;;9.68;3.92;;;;;;;17.82;90.27;102298.25;5032134;28;20030;-80
2023/10/01 09:18:53;;;;;;;7.70;3.50;;;;;;;17.96;91.63;102293.56;5031709;28;20029;-80
2023/10/01 09:21:28;;;;;;;8.57;3.50;;;;;;;18.11;91.28;102286.28;5031286;28;20422;-80
2023/10/01 09:23:56;;;;;;;10.43;3.80;;;;;;;18.29;90.90;102284.97;5029620;28;20025;-80
2023/10/01 09:26:42;;;;;;;9.98;4.25;;;;;;;18.45;89.97;102286.28;5031882;28;20104;-79
2023/10/01 09:29:21;;;;;;;9.65;3.85;;;;;;;18.62;90.26;102283.22;5022915;28;20033;-80
2023/10/01 09:31:57;;;;;;;8.43;3.78;;;;;;;18.76;89.45;102279.38;5032331;28;20053;-80
2023/10/01 09:35:01;;;;;;;9.85;4.07;;;;;;;18.90;85.38;102271.97;5030553;28;20041;-80
2023/10/01 09:37:35;;;;;;;10.48;4.38;;;;;;;19.01;85.69;102273.47;5027071;28;20048;-79
2023/10/01 09:40:32;;;;;;;11.73;4.43;;;;;;;19.02;86.46;102270.78;5025279;28;20132;-80
2023/10/01 09:43:02;;;;;;;15.05;5.18;;;;;;;19.02;81.75;102278.66;5035395;28;21010;-80
2023/10/01 09:45:36;;;;;;;11.60;4.70;;;;;;;19.10;85.18;102274.06;5028971;28;20061;-80
2023/10/01 09:48:09;;;;;;;11.32;4.68;;;;;;;19.22;86.98;102271.97;5024090;28;20096;-80
2023/10/01 09:50:42;;;;;;;9.27;3.88;;;;;;;19.41;87.48;102269.66;5035127;28;20552;-80
2023/10/01 09:53:19;;;;;;;9.18;3.67;;;;;;;19.55;85.16;102270.13;5020328;28;20056;-80
2023/10/01 09:55:49;;;;;;;8.70;3.70;;;;;;;19.67;85.78;102270.66;5035184;28;20358;-80
2023/10/01 09:58:25;;;;;;;8.13;3.60;;;;;;;19.79;86.12;102282.56;5035250;28;20036;-80
2023/10/01 10:00:55;;;;;;;8.98;3.72;;;;;;;19.89;81.33;102276.13;5020945;28;20025;-80
2023/10/01 10:03:21;;;;;;;12.48;4.70;;;;;;;19.99;83.07;102272.28;5026190;28;20029;-80
2023/10/01 10:05:48;;;;;;;13.07;4.78;;;;;;;20.06;82.94;102268.56;5035345;28;20419;-80
2023/10/01 10:08:15;;;;;;;;;;;;;;;20.23;81.55;102276.81;5035896;28;20120;-80
2023/10/01 10:10:48;;;;;;;9.85;4.20;;;;;;;20.30;82.89;102275.69;5042964;28;20326;-77
2023/10/01 10:13:36;;;;;;;12.27;4.70;;;;;;;20.36;81.54;102262.31;5041941;28;20030;-78
2023/10/01 10:16:32;;;;;;;10.82;4.50;;;;;;;20.47;81.99;102275.13;5052416;28;20103;-80
2023/10/01 10:19:08;;;;;;;8.13;3.70;;;;;;;20.62;82.33;102266.69;5035621;28;20095;-79
2023/10/01 10:24:46;;;;;;;8.70;3.80;;;;;;;20.90;82.12;102267.50;5042274;28;20155;-81
2023/10/01 10:27:17;;;;;;;12.65;4.85;;;;;;;21.02;79.19;102264.41;5035268;28;20097;-81
2023/10/01 10:29:56;;;;;;;12.98;4.97;;;;;;;21.10;80.37;102262.34;5035716;28;20028;-82
2023/10/01 10:32:26;;;;;;;11.43;4.47;;;;;;;21.13;78.45;102262.25;5034732;28;20498;-82
2023/10/01 10:35:03;;;;;;;11.85;4.20;;;;;;;21.17;75.23;102252.41;5035408;28;20025;-81
2023/10/01 10:37:35;;;;;;;11.30;4.45;;;;;;;21.27;79.74;102247.66;5050302;28;20477;-81
2023/10/01 10:40:04;;;;;;;13.30;5.13;;;;;;;21.38;75.14;102253.38;5038740;28;20041;-80
2023/10/01 10:42:33;;;;;;;8.90;3.75;;;;;;;21.49;77.93;102250.31;5035287;28;20394;-80
2023/10/01 10:45:19;;;;;;;11.38;4.30;;;;;;;21.63;77.98;102260.38;5034536;28;20026;-82
2023/10/01 10:50:52;;;;;;;11.65;4.60;;;;;;;21.77;74.65;102251.91;5035300;28;20041;-85
2023/10/01 10:53:29;;;;;;;9.98;4.07;;;;;;;21.83;76.15;102245.50;5034066;28;20112;-77
2023/10/01 10:56:05;;;;;;;10.10;3.95;;;;;;;21.97;77.47;102251.06;5054237;28;20029;-82
2023/10/01 10:58:43;;;;;;;12.35;4.60;;;;;;;22.01;75.61;102251.84;5055083;28;20025;-82
2023/10/01 11:01:15;;;;;;;10.88;4.13;;;;;;;21.92;75.44;102253.06;5054830;28;20936;-83
2023/10/01 11:03:48;;;;;;;8.60;3.70;;;;;;;21.95;77.07;102249.41;5054810;28;20062;-82
2023/10/01 11:06:17;;;;;;;8.65;3.50;;;;;;;22.04;75.65;102254.31;5053519;28;20433;-82
2023/10/01 11:08:50;;;;;;;6.50;3.10;;;;;;;22.12;76.00;102254.00;5054636;28;20044;-82
2023/10/01 11:11:28;;;;;;;10.40;4.00;;;;;;;22.20;75.28;102249.25;5030862;28;20069;-83
2023/10/01 11:14:00;;;;;;;8.82;3.67;;;;;;;22.29;74.52;102243.56;5014304;28;20068;-82
2023/10/01 11:16:36;;;;;;;7.90;3.55;;;;;;;22.37;76.37;102243.25;5014742;28;20022;-82
2023/10/01 11:19:12;;;;;;;8.27;3.50;;;;;;;22.46;73.63;102234.09;5015095;28;20040;-81
2023/10/01 11:21:55;;;;;;;7.70;3.42;;;;;;;22.53;76.18;102235.53;5014086;28;20109;-84
2023/10/01 11:24:32;;;;;;;9.18;3.63;;;;;;;22.62;72.16;102213.97;5024398;28;20079;-82
2023/10/01 11:27:25;;;;;;;8.20;3.50;;;;;;;22.75;72.17;102216.03;5033606;28;20021;-82
2023/10/01 11:29:59;;;;;;;9.27;3.80;;;;;;;22.78;73.84;102211.50;5034476;28;20041;-82
2023/10/01 11:35:59;;;;;;;8.80;3.90;;;;;;;22.85;73.08;102206.78;5033705;28;20410;-82
2023/10/01 11:38:25;;;;;;;9.93;3.90;;;;;;;22.94;73.25;102205.47;5014384;28;20041;-82
2023/10/01 11:41:06;;;;;;;7.10;3.30;;;;;;;23.01;72.08;102208.72;5030870;28;20036;-82
2023/10/01 11:43:38;;;;;;;12.25;4.40;;;;;;;23.02;69.04;102207.78;5031360;28;20033;-82
2023/10/01 11:46:23;;;;;;;11.88;4.63;;;;;;;22.98;71.20;102204.44;5030721;28;20392;-83
2023/10/01 11:49:17;;;;;;;9.23;3.83;;;;;;;23.03;72.79;102201.56;5032639;28;20025;-82
2023/10/01 11:51:48;;;;;;;8.02;3.58;;;;;;;23.08;73.25;102203.06;5028288;28;20475;-82
2023/10/01 11:54:52;;;;;;;8.95;3.65;;;;;;;23.08;72.11;102205.72;5033774;28;20021;-82
2023/10/01 11:57:22;;;;;;;10.37;4.03;;;;;;;23.06;68.89;102209.38;5032833;28;20117;-82
2023/10/01 11:59:54;;;;;;;9.55;3.67;;;;;;;23.06;71.95;102204.91;5095621;22;20306;-82
2023/10/01 12:02:29;;;;;;;8.82;3.88;;;;;;;23.05;70.75;102194.41;5061270;28;20025;-82
2023/10/01 12:04:56;;;;;;;12.73;4.80;;;;;;;23.02;68.80;102184.84;5073039;28;20031;-82
2023/10/01 12:07:23;;;;;;;11.10;4.47;;;;;;;23.01;69.69;102176.94;5071802;28;20934;-84
2023/10/01 12:09:50;;;;;;;12.55;4.95;;;;;;;22.92;67.94;102183.53;5065522;28;20132;-80
2023/10/01 12:12:21;;;;;;;13.15;5.10;;;;;;;22.74;63.27;102186.09;5073070;28;20052;-80
2023/10/01 12:14:56;;;;;;;14.00;5.30;;;;;;;22.77;68.02;102180.66;5073468;28;20043;-81
2023/10/01 12:17:28;;;;;;;14.90;5.35;;;;;;;22.68;67.33;102174.00;5072534;28;20104;-82